sensor_id;sensor_type;location;lat;lon;timestamp;P1;durP1;ratioP1;P2;durP2;ratioP2
80725;SDS011;70113;59.928;10.878;2023-09-19T00:01:33;8.27;;;5.65;;
80725;SDS011;70113;59.928;10.878;2023-09-19T00:03:59;10.23;;;5.63;;
80725;SDS011;70113;59.928;10.878;2023-09-19T00:06:28;12.77;;;5.93;;
80725;SDS011;70113;59.928;10.878;2023-09-19T00:08:57;11.32;;;6.82;;
80725;SDS011;70113;59.928;10.878;2023-09-19T00:11:25;11.95;;;6.95;;
80725;SDS011;70113;59.928;10.878;2023-09-19T00:13:52;12.80;;;7.88;;
80725;SDS011;70113;59.928;10.878;2023-09-19T00:16:18;14.15;;;8.27;;
80725;SDS011;70113;59.928;10.878;2023-09-19T00:18:44;12.05;;;7.90;;
80725;SDS011;70113;59.928;10.878;2023-09-19T00:21:10;13.68;;;7.55;;
80725;SDS011;70113;59.928;10.878;2023-09-19T00:23:36;11.57;;;7.07;;
80725;SDS011;70113;59.928;10.878;2023-09-19T00:26:02;16.33;;;7.85;;
80725;SDS011;70113;59.928;10.878;2023-09-19T00:28:29;14.02;;;6.88;;
80725;SDS011;70113;59.928;10.878;2023-09-19T00:30:55;12.45;;;7.30;;
80725;SDS011;70113;59.928;10.878;2023-09-19T00:33:21;11.90;;;6.82;;
80725;SDS011;70113;59.928;10.878;2023-09-19T00:35:51;13.07;;;7.07;;
80725;SDS011;70113;59.928;10.878;2023-09-19T00:38:18;14.23;;;7.43;;
80725;SDS011;70113;59.928;10.878;2023-09-19T00:40:50;12.85;;;6.65;;
80725;SDS011;70113;59.928;10.878;2023-09-19T00:43:16;16.98;;;7.43;;
80725;SDS011;70113;59.928;10.878;2023-09-19T00:45:43;11.85;;;7.60;;
80725;SDS011;70113;59.928;10.878;2023-09-19T00:48:11;13.65;;;6.65;;
80725;SDS011;70113;59.928;10.878;2023-09-19T01:10:55;16.48;;;6.82;;
80725;SDS011;70113;59.928;10.878;2023-09-19T01:13:29;12.25;;;5.80;;
80725;SDS011;70113;59.928;10.878;2023-09-19T01:18:50;13.27;;;5.55;;
80725;SDS011;70113;59.928;10.878;2023-09-19T01:26:44;13.50;;;6.53;;
80725;SDS011;70113;59.928;10.878;2023-09-19T01:29:35;12.23;;;6.00;;
80725;SDS011;70113;59.928;10.878;2023-09-19T01:32:05;14.77;;;6.45;;
80725;SDS011;70113;59.928;10.878;2023-09-19T01:34:47;12.32;;;5.07;;
80725;SDS011;70113;59.928;10.878;2023-09-19T01:37:18;10.73;;;5.65;;
80725;SDS011;70113;59.928;10.878;2023-09-19T01:39:50;13.93;;;6.32;;
80725;SDS011;70113;59.928;10.878;2023-09-19T01:45:03;12.18;;;6.13;;
80725;SDS011;70113;59.928;10.878;2023-09-19T01:47:39;10.02;;;5.38;;
80725;SDS011;70113;59.928;10.878;2023-09-19T01:55:20;9.90;;;5.38;;
80725;SDS011;70113;59.928;10.878;2023-09-19T02:00:58;10.77;;;5.45;;
80725;SDS011;70113;59.928;10.878;2023-09-19T02:03:25;11.77;;;5.55;;
80725;SDS011;70113;59.928;10.878;2023-09-19T02:05:54;12.13;;;5.75;;
80725;SDS011;70113;59.928;10.878;2023-09-19T02:08:20;12.98;;;5.50;;
80725;SDS011;70113;59.928;10.878;2023-09-19T02:10:51;9.33;;;5.53;;
80725;SDS011;70113;59.928;10.878;2023-09-19T02:13:18;11.40;;;5.82;;
80725;SDS011;70113;59.928;10.878;2023-09-19T02:15:45;8.35;;;5.68;;
80725;SDS011;70113;59.928;10.878;2023-09-19T02:18:11;14.98;;;6.63;;
80725;SDS011;70113;59.928;10.878;2023-09-19T02:20:38;10.65;;;5.18;;
80725;SDS011;70113;59.928;10.878;2023-09-19T02:23:04;10.50;;;5.63;;
80725;SDS011;70113;59.928;10.878;2023-09-19T02:25:31;14.43;;;6.05;;
80725;SDS011;70113;59.928;10.878;2023-09-19T02:28:00;10.43;;;5.82;;
80725;SDS011;70113;59.928;10.878;2023-09-19T02:30:29;11.85;;;6.63;;
80725;SDS011;70113;59.928;10.878;2023-09-19T02:32:55;14.38;;;6.13;;
80725;SDS011;70113;59.928;10.878;2023-09-19T02:35:21;9.95;;;5.95;;
80725;SDS011;70113;59.928;10.878;2023-09-19T02:37:47;12.95;;;6.07;;
80725;SDS011;70113;59.928;10.878;2023-09-19T02:40:13;13.02;;;6.03;;
80725;SDS011;70113;59.928;10.878;2023-09-19T02:42:47;11.23;;;5.13;;
80725;SDS011;70113;59.928;10.878;2023-09-19T02:45:15;13.82;;;6.07;;
80725;SDS011;70113;59.928;10.878;2023-09-19T02:47:43;10.30;;;5.88;;
80725;SDS011;70113;59.928;10.878;2023-09-19T02:50:09;12.07;;;6.00;;
80725;SDS011;70113;59.928;10.878;2023-09-19T02:52:36;13.55;;;5.75;;
80725;SDS011;70113;59.928;10.878;2023-09-19T02:55:03;10.77;;;5.80;;
80725;SDS011;70113;59.928;10.878;2023-09-19T02:57:31;10.48;;;5.82;;
80725;SDS011;70113;59.928;10.878;2023-09-19T02:59:59;11.23;;;5.80;;
80725;SDS011;70113;59.928;10.878;2023-09-19T03:02:26;8.27;;;5.65;;
80725;SDS011;70113;59.928;10.878;2023-09-19T03:04:53;10.05;;;6.00;;
80725;SDS011;70113;59.928;10.878;2023-09-19T03:07:19;13.48;;;6.55;;
80725;SDS011;70113;59.928;10.878;2023-09-19T03:09:45;13.70;;;6.22;;
80725;SDS011;70113;59.928;10.878;2023-09-19T03:14:35;10.83;;;5.63;;
80725;SDS011;70113;59.928;10.878;2023-09-19T03:17:01;10.48;;;6.38;;
80725;SDS011;70113;59.928;10.878;2023-09-19T03:19:30;10.05;;;6.05;;
80725;SDS011;70113;59.928;10.878;2023-09-19T03:21:59;8.98;;;5.93;;
80725;SDS011;70113;59.928;10.878;2023-09-19T03:24:24;9.70;;;6.30;;
80725;SDS011;70113;59.928;10.878;2023-09-19T03:26:50;12.73;;;5.90;;
80725;SDS011;70113;59.928;10.878;2023-09-19T03:29:16;9.70;;;5.93;;
80725;SDS011;70113;59.928;10.878;2023-09-19T03:31:42;8.48;;;5.35;;
80725;SDS011;70113;59.928;10.878;2023-09-19T03:34:08;7.07;;;4.95;;
80725;SDS011;70113;59.928;10.878;2023-09-19T03:36:34;7.75;;;4.85;;
80725;SDS011;70113;59.928;10.878;2023-09-19T03:39:01;6.93;;;4.25;;
80725;SDS011;70113;59.928;10.878;2023-09-19T03:41:30;6.05;;;4.18;;
80725;SDS011;70113;59.928;10.878;2023-09-19T03:43:56;7.20;;;4.43;;
80725;SDS011;70113;59.928;10.878;2023-09-19T03:46:22;7.45;;;4.68;;
80725;SDS011;70113;59.928;10.878;2023-09-19T03:48:48;8.82;;;5.40;;
80725;SDS011;70113;59.928;10.878;2023-09-19T03:51:14;7.63;;;5.20;;
80725;SDS011;70113;59.928;10.878;2023-09-19T03:53:39;9.35;;;6.35;;
80725;SDS011;70113;59.928;10.878;2023-09-19T03:56:05;9.10;;;6.18;;
80725;SDS011;70113;59.928;10.878;2023-09-19T03:58:30;10.55;;;6.95;;
80725;SDS011;70113;59.928;10.878;2023-09-19T04:00:56;8.77;;;7.00;;
80725;SDS011;70113;59.928;10.878;2023-09-19T04:03:23;10.10;;;7.60;;
80725;SDS011;70113;59.928;10.878;2023-09-19T04:05:50;9.80;;;7.70;;
80725;SDS011;70113;59.928;10.878;2023-09-19T04:08:16;10.70;;;7.75;;
80725;SDS011;70113;59.928;10.878;2023-09-19T04:10:44;10.60;;;7.90;;
80725;SDS011;70113;59.928;10.878;2023-09-19T04:13:10;9.13;;;7.78;;
80725;SDS011;70113;59.928;10.878;2023-09-19T04:15:36;9.77;;;7.90;;
80725;SDS011;70113;59.928;10.878;2023-09-19T04:18:02;10.23;;;8.32;;
80725;SDS011;70113;59.928;10.878;2023-09-19T04:20:29;11.43;;;8.27;;
80725;SDS011;70113;59.928;10.878;2023-09-19T04:22:54;9.70;;;8.25;;
80725;SDS011;70113;59.928;10.878;2023-09-19T04:25:20;9.35;;;8.07;;
80725;SDS011;70113;59.928;10.878;2023-09-19T04:27:46;10.80;;;7.50;;
80725;SDS011;70113;59.928;10.878;2023-09-19T04:30:14;10.60;;;8.60;;
80725;SDS011;70113;59.928;10.878;2023-09-19T04:32:40;12.82;;;7.97;;
80725;SDS011;70113;59.928;10.878;2023-09-19T04:35:07;8.45;;;6.68;;
80725;SDS011;70113;59.928;10.878;2023-09-19T04:37:40;11.15;;;7.20;;
80725;SDS011;70113;59.928;10.878;2023-09-19T04:40:07;8.90;;;6.18;;
80725;SDS011;70113;59.928;10.878;2023-09-19T04:42:42;7.10;;;6.13;;
80725;SDS011;70113;59.928;10.878;2023-09-19T04:45:09;8.82;;;6.38;;
80725;SDS011;70113;59.928;10.878;2023-09-19T04:47:36;7.68;;;6.05;;
80725;SDS011;70113;59.928;10.878;2023-09-19T04:50:05;8.18;;;6.18;;
80725;SDS011;70113;59.928;10.878;2023-09-19T04:52:32;7.18;;;5.30;;
80725;SDS011;70113;59.928;10.878;2023-09-19T04:54:57;7.00;;;5.22;;
80725;SDS011;70113;59.928;10.878;2023-09-19T04:57:23;6.45;;;5.15;;
80725;SDS011;70113;59.928;10.878;2023-09-19T04:59:51;7.10;;;4.90;;
80725;SDS011;70113;59.928;10.878;2023-09-19T05:02:16;7.15;;;5.07;;
80725;SDS011;70113;59.928;10.878;2023-09-19T05:04:42;9.40;;;6.50;;
80725;SDS011;70113;59.928;10.878;2023-09-19T05:07:08;8.13;;;5.85;;
80725;SDS011;70113;59.928;10.878;2023-09-19T05:09:36;6.75;;;5.45;;
80725;SDS011;70113;59.928;10.878;2023-09-19T05:12:02;7.10;;;4.43;;
80725;SDS011;70113;59.928;10.878;2023-09-19T05:14:28;5.18;;;3.72;;
80725;SDS011;70113;59.928;10.878;2023-09-19T05:16:55;8.40;;;4.00;;
80725;SDS011;70113;59.928;10.878;2023-09-19T05:19:20;5.82;;;3.88;;
80725;SDS011;70113;59.928;10.878;2023-09-19T05:21:46;6.10;;;3.40;;
80725;SDS011;70113;59.928;10.878;2023-09-19T05:24:12;6.00;;;3.30;;
80725;SDS011;70113;59.928;10.878;2023-09-19T05:26:39;4.30;;;2.92;;
80725;SDS011;70113;59.928;10.878;2023-09-19T05:29:05;5.75;;;2.88;;
80725;SDS011;70113;59.928;10.878;2023-09-19T05:31:33;4.70;;;2.88;;
80725;SDS011;70113;59.928;10.878;2023-09-19T05:34:01;4.43;;;2.92;;
80725;SDS011;70113;59.928;10.878;2023-09-19T05:36:27;4.00;;;2.42;;
80725;SDS011;70113;59.928;10.878;2023-09-19T05:38:55;4.97;;;2.53;;
80725;SDS011;70113;59.928;10.878;2023-09-19T05:41:20;4.95;;;2.88;;
80725;SDS011;70113;59.928;10.878;2023-09-19T05:43:48;4.00;;;2.45;;
80725;SDS011;70113;59.928;10.878;2023-09-19T05:46:15;4.47;;;2.70;;
80725;SDS011;70113;59.928;10.878;2023-09-19T05:48:42;4.22;;;2.38;;
80725;SDS011;70113;59.928;10.878;2023-09-19T05:51:09;4.60;;;2.90;;
80725;SDS011;70113;59.928;10.878;2023-09-19T05:53:35;5.97;;;3.30;;
80725;SDS011;70113;59.928;10.878;2023-09-19T05:56:00;7.25;;;3.25;;
80725;SDS011;70113;59.928;10.878;2023-09-19T05:58:26;7.18;;;3.13;;
80725;SDS011;70113;59.928;10.878;2023-09-19T06:00:52;7.30;;;3.95;;
80725;SDS011;70113;59.928;10.878;2023-09-19T06:03:17;6.50;;;4.00;;
80725;SDS011;70113;59.928;10.878;2023-09-19T06:05:44;5.95;;;3.63;;
80725;SDS011;70113;59.928;10.878;2023-09-19T06:08:11;6.55;;;3.70;;
80725;SDS011;70113;59.928;10.878;2023-09-19T06:10:37;5.80;;;3.40;;
80725;SDS011;70113;59.928;10.878;2023-09-19T06:15:28;9.23;;;3.30;;
80725;SDS011;70113;59.928;10.878;2023-09-19T06:17:54;5.80;;;2.90;;
80725;SDS011;70113;59.928;10.878;2023-09-19T06:20:21;5.55;;;3.00;;
80725;SDS011;70113;59.928;10.878;2023-09-19T06:22:48;7.10;;;2.58;;
80725;SDS011;70113;59.928;10.878;2023-09-19T06:25:15;7.55;;;2.75;;
80725;SDS011;70113;59.928;10.878;2023-09-19T06:27:45;6.57;;;2.88;;
80725;SDS011;70113;59.928;10.878;2023-09-19T06:30:11;6.45;;;2.70;;
80725;SDS011;70113;59.928;10.878;2023-09-19T06:32:37;6.80;;;2.80;;
80725;SDS011;70113;59.928;10.878;2023-09-19T06:35:03;6.80;;;2.70;;
80725;SDS011;70113;59.928;10.878;2023-09-19T06:37:32;9.60;;;2.40;;
80725;SDS011;70113;59.928;10.878;2023-09-19T06:39:59;5.53;;;3.00;;
80725;SDS011;70113;59.928;10.878;2023-09-19T06:42:25;9.20;;;2.97;;
80725;SDS011;70113;59.928;10.878;2023-09-19T06:44:53;8.80;;;3.17;;
80725;SDS011;70113;59.928;10.878;2023-09-19T06:47:19;5.50;;;2.30;;
80725;SDS011;70113;59.928;10.878;2023-09-19T06:49:45;7.63;;;2.42;;
80725;SDS011;70113;59.928;10.878;2023-09-19T06:52:11;6.43;;;2.70;;
80725;SDS011;70113;59.928;10.878;2023-09-19T06:54:36;6.85;;;2.30;;
80725;SDS011;70113;59.928;10.878;2023-09-19T06:57:03;7.50;;;2.50;;
80725;SDS011;70113;59.928;10.878;2023-09-19T06:59:28;8.90;;;2.72;;
80725;SDS011;70113;59.928;10.878;2023-09-19T07:01:54;9.38;;;2.38;;
80725;SDS011;70113;59.928;10.878;2023-09-19T07:04:20;6.82;;;2.20;;
80725;SDS011;70113;59.928;10.878;2023-09-19T07:06:49;7.35;;;2.20;;
80725;SDS011;70113;59.928;10.878;2023-09-19T07:09:15;8.98;;;2.47;;
80725;SDS011;70113;59.928;10.878;2023-09-19T07:11:42;8.48;;;2.08;;
80725;SDS011;70113;59.928;10.878;2023-09-19T07:14:08;7.13;;;1.55;;
80725;SDS011;70113;59.928;10.878;2023-09-19T07:16:37;9.10;;;2.20;;
80725;SDS011;70113;59.928;10.878;2023-09-19T07:19:08;8.27;;;1.80;;
80725;SDS011;70113;59.928;10.878;2023-09-19T07:21:33;6.38;;;1.50;;
80725;SDS011;70113;59.928;10.878;2023-09-19T07:24:00;7.05;;;1.40;;
80725;SDS011;70113;59.928;10.878;2023-09-19T07:26:26;5.05;;;1.63;;
80725;SDS011;70113;59.928;10.878;2023-09-19T07:28:53;7.15;;;1.38;;
80725;SDS011;70113;59.928;10.878;2023-09-19T07:31:19;6.22;;;1.30;;
80725;SDS011;70113;59.928;10.878;2023-09-19T07:33:45;6.80;;;1.35;;
80725;SDS011;70113;59.928;10.878;2023-09-19T07:36:11;8.30;;;1.40;;
80725;SDS011;70113;59.928;10.878;2023-09-19T07:38:39;5.60;;;1.20;;
80725;SDS011;70113;59.928;10.878;2023-09-19T07:41:05;6.88;;;1.30;;
80725;SDS011;70113;59.928;10.878;2023-09-19T07:43:31;7.43;;;1.40;;
80725;SDS011;70113;59.928;10.878;2023-09-19T07:45:57;10.05;;;1.25;;
80725;SDS011;70113;59.928;10.878;2023-09-19T07:48:25;4.88;;;1.15;;
80725;SDS011;70113;59.928;10.878;2023-09-19T07:50:51;9.60;;;1.58;;
80725;SDS011;70113;59.928;10.878;2023-09-19T07:53:17;5.35;;;1.10;;
80725;SDS011;70113;59.928;10.878;2023-09-19T07:55:43;4.88;;;0.88;;
80725;SDS011;70113;59.928;10.878;2023-09-19T07:58:09;5.32;;;1.10;;
80725;SDS011;70113;59.928;10.878;2023-09-19T08:00:34;8.05;;;1.10;;
80725;SDS011;70113;59.928;10.878;2023-09-19T08:03:00;6.47;;;1.25;;
80725;SDS011;70113;59.928;10.878;2023-09-19T08:05:26;7.75;;;1.10;;
80725;SDS011;70113;59.928;10.878;2023-09-19T08:07:52;7.13;;;1.13;;
80725;SDS011;70113;59.928;10.878;2023-09-19T08:10:19;7.45;;;1.08;;
80725;SDS011;70113;59.928;10.878;2023-09-19T08:12:46;6.63;;;1.10;;
80725;SDS011;70113;59.928;10.878;2023-09-19T08:15:17;6.38;;;1.17;;
80725;SDS011;70113;59.928;10.878;2023-09-19T08:20:10;6.67;;;1.40;;
80725;SDS011;70113;59.928;10.878;2023-09-19T08:22:59;6.97;;;1.17;;
80725;SDS011;70113;59.928;10.878;2023-09-19T08:25:25;6.15;;;1.05;;
80725;SDS011;70113;59.928;10.878;2023-09-19T08:27:54;7.72;;;1.40;;
80725;SDS011;70113;59.928;10.878;2023-09-19T08:30:27;6.45;;;1.50;;
80725;SDS011;70113;59.928;10.878;2023-09-19T08:33:01;9.38;;;1.65;;
80725;SDS011;70113;59.928;10.878;2023-09-19T08:35:29;5.97;;;1.20;;
80725;SDS011;70113;59.928;10.878;2023-09-19T08:37:55;9.98;;;1.50;;
80725;SDS011;70113;59.928;10.878;2023-09-19T08:40:21;9.77;;;1.27;;
80725;SDS011;70113;59.928;10.878;2023-09-19T08:42:51;8.23;;;1.35;;
80725;SDS011;70113;59.928;10.878;2023-09-19T08:45:22;9.55;;;1.70;;
80725;SDS011;70113;59.928;10.878;2023-09-19T08:48:05;7.30;;;1.67;;
80725;SDS011;70113;59.928;10.878;2023-09-19T08:50:43;8.27;;;1.35;;
80725;SDS011;70113;59.928;10.878;2023-09-19T08:53:15;9.15;;;1.45;;
80725;SDS011;70113;59.928;10.878;2023-09-19T08:55:48;7.05;;;1.27;;
80725;SDS011;70113;59.928;10.878;2023-09-19T08:58:17;8.93;;;1.38;;
80725;SDS011;70113;59.928;10.878;2023-09-19T09:00:46;7.40;;;1.30;;
80725;SDS011;70113;59.928;10.878;2023-09-19T09:03:15;6.18;;;1.40;;
80725;SDS011;70113;59.928;10.878;2023-09-19T09:05:44;6.05;;;1.40;;
80725;SDS011;70113;59.928;10.878;2023-09-19T09:08:12;6.90;;;1.27;;
80725;SDS011;70113;59.928;10.878;2023-09-19T09:10:38;4.10;;;1.10;;
80725;SDS011;70113;59.928;10.878;2023-09-19T09:13:06;4.85;;;1.50;;
80725;SDS011;70113;59.928;10.878;2023-09-19T09:15:31;4.97;;;1.20;;
80725;SDS011;70113;59.928;10.878;2023-09-19T09:18:01;5.80;;;1.15;;
80725;SDS011;70113;59.928;10.878;2023-09-19T09:20:28;5.68;;;0.80;;
80725;SDS011;70113;59.928;10.878;2023-09-19T09:22:54;3.83;;;0.70;;
80725;SDS011;70113;59.928;10.878;2023-09-19T09:25:23;2.50;;;0.80;;
80725;SDS011;70113;59.928;10.878;2023-09-19T09:28:13;4.78;;;0.95;;
80725;SDS011;70113;59.928;10.878;2023-09-19T09:30:45;5.28;;;1.00;;
80725;SDS011;70113;59.928;10.878;2023-09-19T09:33:11;3.53;;;1.05;;
80725;SDS011;70113;59.928;10.878;2023-09-19T09:35:55;2.53;;;0.90;;
80725;SDS011;70113;59.928;10.878;2023-09-19T09:38:23;4.50;;;1.10;;
80725;SDS011;70113;59.928;10.878;2023-09-19T09:40:55;2.95;;;0.60;;
80725;SDS011;70113;59.928;10.878;2023-09-19T09:43:28;3.33;;;0.70;;
80725;SDS011;70113;59.928;10.878;2023-09-19T09:46:06;2.85;;;0.65;;
80725;SDS011;70113;59.928;10.878;2023-09-19T09:48:36;3.13;;;0.80;;
80725;SDS011;70113;59.928;10.878;2023-09-19T09:51:04;2.55;;;0.70;;
80725;SDS011;70113;59.928;10.878;2023-09-19T09:53:33;3.33;;;0.90;;
80725;SDS011;70113;59.928;10.878;2023-09-19T09:56:00;3.08;;;0.63;;
80725;SDS011;70113;59.928;10.878;2023-09-19T09:58:25;3.65;;;0.73;;
80725;SDS011;70113;59.928;10.878;2023-09-19T10:00:54;2.22;;;0.52;;
80725;SDS011;70113;59.928;10.878;2023-09-19T10:03:37;3.22;;;0.75;;
80725;SDS011;70113;59.928;10.878;2023-09-19T10:06:09;2.67;;;0.82;;
80725;SDS011;70113;59.928;10.878;2023-09-19T10:09:01;2.00;;;0.55;;
80725;SDS011;70113;59.928;10.878;2023-09-19T10:11:43;5.97;;;0.60;;
80725;SDS011;70113;59.928;10.878;2023-09-19T10:14:11;2.65;;;0.50;;
80725;SDS011;70113;59.928;10.878;2023-09-19T10:16:42;2.83;;;0.70;;
80725;SDS011;70113;59.928;10.878;2023-09-19T10:19:15;1.52;;;0.60;;
80725;SDS011;70113;59.928;10.878;2023-09-19T10:22:04;2.50;;;1.23;;
80725;SDS011;70113;59.928;10.878;2023-09-19T10:24:32;0.65;;;0.50;;
80725;SDS011;70113;59.928;10.878;2023-09-19T10:26:59;1.80;;;0.60;;
80725;SDS011;70113;59.928;10.878;2023-09-19T10:29:25;0.68;;;0.30;;
80725;SDS011;70113;59.928;10.878;2023-09-19T10:31:55;1.83;;;0.60;;
80725;SDS011;70113;59.928;10.878;2023-09-19T10:34:24;1.65;;;0.47;;
80725;SDS011;70113;59.928;10.878;2023-09-19T10:36:50;1.90;;;0.40;;
80725;SDS011;70113;59.928;10.878;2023-09-19T10:39:17;0.85;;;0.30;;
80725;SDS011;70113;59.928;10.878;2023-09-19T10:41:47;2.45;;;0.43;;
80725;SDS011;70113;59.928;10.878;2023-09-19T10:44:23;1.42;;;0.30;;
80725;SDS011;70113;59.928;10.878;2023-09-19T10:46:50;0.70;;;0.37;;
80725;SDS011;70113;59.928;10.878;2023-09-19T10:49:18;1.20;;;0.40;;
80725;SDS011;70113;59.928;10.878;2023-09-19T10:51:45;1.00;;;0.30;;
80725;SDS011;70113;59.928;10.878;2023-09-19T10:54:15;0.35;;;0.25;;
80725;SDS011;70113;59.928;10.878;2023-09-19T10:56:51;1.50;;;0.40;;
80725;SDS011;70113;59.928;10.878;2023-09-19T10:59:18;0.55;;;0.30;;
80725;SDS011;70113;59.928;10.878;2023-09-19T11:07:12;1.02;;;0.30;;
80725;SDS011;70113;59.928;10.878;2023-09-19T11:09:54;1.67;;;0.30;;
80725;SDS011;70113;59.928;10.878;2023-09-19T11:15:02;0.40;;;0.30;;
80725;SDS011;70113;59.928;10.878;2023-09-19T11:17:36;0.60;;;0.30;;
80725;SDS011;70113;59.928;10.878;2023-09-19T11:30:32;1.85;;;0.40;;
80725;SDS011;70113;59.928;10.878;2023-09-19T11:36:01;2.05;;;0.43;;
80725;SDS011;70113;59.928;10.878;2023-09-19T11:46:30;1.23;;;0.30;;
80725;SDS011;70113;59.928;10.878;2023-09-19T11:49:04;1.80;;;0.60;;
80725;SDS011;70113;59.928;10.878;2023-09-19T11:51:42;2.70;;;0.50;;
80725;SDS011;70113;59.928;10.878;2023-09-19T11:54:12;1.95;;;0.50;;
80725;SDS011;70113;59.928;10.878;2023-09-19T11:56:53;4.13;;;0.68;;
80725;SDS011;70113;59.928;10.878;2023-09-19T11:59:38;2.17;;;0.60;;
80725;SDS011;70113;59.928;10.878;2023-09-19T12:02:04;2.58;;;0.57;;
80725;SDS011;70113;59.928;10.878;2023-09-19T12:07:09;4.15;;;0.65;;
80725;SDS011;70113;59.928;10.878;2023-09-19T12:09:44;4.18;;;0.95;;
80725;SDS011;70113;59.928;10.878;2023-09-19T12:15:00;2.45;;;0.70;;
80725;SDS011;70113;59.928;10.878;2023-09-19T12:17:38;3.03;;;0.60;;
80725;SDS011;70113;59.928;10.878;2023-09-19T12:20:06;2.10;;;0.68;;
80725;SDS011;70113;59.928;10.878;2023-09-19T12:22:41;4.10;;;0.80;;
80725;SDS011;70113;59.928;10.878;2023-09-19T12:25:08;5.60;;;0.80;;
80725;SDS011;70113;59.928;10.878;2023-09-19T12:30:09;0.88;;;0.40;;
80725;SDS011;70113;59.928;10.878;2023-09-19T12:32:39;3.25;;;0.82;;
80725;SDS011;70113;59.928;10.878;2023-09-19T12:35:06;5.10;;;0.57;;
80725;SDS011;70113;59.928;10.878;2023-09-19T12:37:44;2.08;;;0.70;;
80725;SDS011;70113;59.928;10.878;2023-09-19T12:40:18;3.75;;;0.85;;
80725;SDS011;70113;59.928;10.878;2023-09-19T12:42:48;2.03;;;0.60;;
80725;SDS011;70113;59.928;10.878;2023-09-19T12:45:14;2.55;;;0.50;;
80725;SDS011;70113;59.928;10.878;2023-09-19T12:53:40;3.03;;;0.63;;
80725;SDS011;70113;59.928;10.878;2023-09-19T12:56:17;1.48;;;0.47;;
80725;SDS011;70113;59.928;10.878;2023-09-19T12:58:53;1.52;;;0.50;;
80725;SDS011;70113;59.928;10.878;2023-09-19T13:01:20;3.30;;;0.80;;
80725;SDS011;70113;59.928;10.878;2023-09-19T13:06:46;3.75;;;0.80;;
80725;SDS011;70113;59.928;10.878;2023-09-19T13:09:15;2.85;;;0.70;;
80725;SDS011;70113;59.928;10.878;2023-09-19T13:11:42;2.25;;;0.75;;
80725;SDS011;70113;59.928;10.878;2023-09-19T13:14:17;5.43;;;0.80;;
80725;SDS011;70113;59.928;10.878;2023-09-19T13:17:03;2.80;;;0.63;;
80725;SDS011;70113;59.928;10.878;2023-09-19T13:19:51;2.80;;;0.57;;
80725;SDS011;70113;59.928;10.878;2023-09-19T13:25:20;5.18;;;1.02;;
80725;SDS011;70113;59.928;10.878;2023-09-19T13:30:22;3.92;;;0.90;;
80725;SDS011;70113;59.928;10.878;2023-09-19T13:32:50;8.70;;;1.10;;
80725;SDS011;70113;59.928;10.878;2023-09-19T13:35:18;4.05;;;1.08;;
80725;SDS011;70113;59.928;10.878;2023-09-19T13:37:44;2.47;;;0.85;;
80725;SDS011;70113;59.928;10.878;2023-09-19T13:40:14;5.25;;;1.30;;
80725;SDS011;70113;59.928;10.878;2023-09-19T13:42:41;4.18;;;1.23;;
80725;SDS011;70113;59.928;10.878;2023-09-19T13:45:07;4.75;;;1.20;;
80725;SDS011;70113;59.928;10.878;2023-09-19T13:47:37;5.28;;;0.95;;
80725;SDS011;70113;59.928;10.878;2023-09-19T13:50:04;6.10;;;1.20;;
80725;SDS011;70113;59.928;10.878;2023-09-19T13:52:30;6.25;;;0.98;;
80725;SDS011;70113;59.928;10.878;2023-09-19T13:54:57;6.10;;;1.00;;
80725;SDS011;70113;59.928;10.878;2023-09-19T13:57:23;6.55;;;1.10;;
80725;SDS011;70113;59.928;10.878;2023-09-19T13:59:51;3.15;;;0.85;;
80725;SDS011;70113;59.928;10.878;2023-09-19T14:02:20;4.63;;;1.13;;
80725;SDS011;70113;59.928;10.878;2023-09-19T14:04:49;4.78;;;0.98;;
80725;SDS011;70113;59.928;10.878;2023-09-19T14:07:15;3.90;;;0.85;;
80725;SDS011;70113;59.928;10.878;2023-09-19T14:09:43;3.78;;;1.13;;
80725;SDS011;70113;59.928;10.878;2023-09-19T14:12:09;2.85;;;0.73;;
80725;SDS011;70113;59.928;10.878;2023-09-19T14:14:34;2.30;;;0.82;;
80725;SDS011;70113;59.928;10.878;2023-09-19T14:17:00;2.58;;;0.60;;
80725;SDS011;70113;59.928;10.878;2023-09-19T14:19:26;2.78;;;0.70;;
80725;SDS011;70113;59.928;10.878;2023-09-19T14:21:52;3.42;;;0.88;;
80725;SDS011;70113;59.928;10.878;2023-09-19T14:24:21;3.92;;;0.82;;
80725;SDS011;70113;59.928;10.878;2023-09-19T14:26:47;4.93;;;1.25;;
80725;SDS011;70113;59.928;10.878;2023-09-19T14:29:13;3.83;;;0.80;;
80725;SDS011;70113;59.928;10.878;2023-09-19T14:31:39;3.28;;;0.63;;
80725;SDS011;70113;59.928;10.878;2023-09-19T14:34:05;1.70;;;0.68;;
80725;SDS011;70113;59.928;10.878;2023-09-19T14:36:31;4.88;;;0.77;;
80725;SDS011;70113;59.928;10.878;2023-09-19T14:38:58;4.95;;;0.95;;
80725;SDS011;70113;59.928;10.878;2023-09-19T14:41:24;2.05;;;0.55;;
80725;SDS011;70113;59.928;10.878;2023-09-19T14:43:51;2.63;;;0.60;;
80725;SDS011;70113;59.928;10.878;2023-09-19T14:46:17;2.28;;;0.47;;
80725;SDS011;70113;59.928;10.878;2023-09-19T14:48:44;2.25;;;0.85;;
80725;SDS011;70113;59.928;10.878;2023-09-19T14:51:13;1.92;;;0.60;;
80725;SDS011;70113;59.928;10.878;2023-09-19T14:53:40;1.88;;;0.50;;
80725;SDS011;70113;59.928;10.878;2023-09-19T14:56:10;1.38;;;0.52;;
80725;SDS011;70113;59.928;10.878;2023-09-19T14:58:36;1.13;;;0.40;;
80725;SDS011;70113;59.928;10.878;2023-09-19T15:03:35;3.95;;;0.70;;
80725;SDS011;70113;59.928;10.878;2023-09-19T15:06:02;2.05;;;0.63;;
80725;SDS011;70113;59.928;10.878;2023-09-19T15:08:32;1.63;;;0.50;;
80725;SDS011;70113;59.928;10.878;2023-09-19T15:11:04;3.20;;;0.60;;
80725;SDS011;70113;59.928;10.878;2023-09-19T15:13:31;2.97;;;0.50;;
80725;SDS011;70113;59.928;10.878;2023-09-19T15:16:04;1.75;;;0.65;;
80725;SDS011;70113;59.928;10.878;2023-09-19T15:18:34;3.40;;;1.02;;
80725;SDS011;70113;59.928;10.878;2023-09-19T15:21:06;4.75;;;0.60;;
80725;SDS011;70113;59.928;10.878;2023-09-19T15:23:34;2.13;;;0.50;;
80725;SDS011;70113;59.928;10.878;2023-09-19T15:26:05;2.55;;;0.40;;
80725;SDS011;70113;59.928;10.878;2023-09-19T15:28:32;5.93;;;0.82;;
80725;SDS011;70113;59.928;10.878;2023-09-19T15:33:25;2.50;;;0.50;;
80725;SDS011;70113;59.928;10.878;2023-09-19T15:36:12;2.83;;;0.40;;
80725;SDS011;70113;59.928;10.878;2023-09-19T15:38:58;0.82;;;0.28;;
80725;SDS011;70113;59.928;10.878;2023-09-19T15:41:28;1.30;;;0.40;;
80725;SDS011;70113;59.928;10.878;2023-09-19T15:43:56;1.58;;;0.40;;
80725;SDS011;70113;59.928;10.878;2023-09-19T15:46:22;1.58;;;0.40;;
80725;SDS011;70113;59.928;10.878;2023-09-19T15:48:48;2.25;;;0.50;;
80725;SDS011;70113;59.928;10.878;2023-09-19T15:51:14;0.73;;;0.30;;
80725;SDS011;70113;59.928;10.878;2023-09-19T15:53:41;1.52;;;0.60;;
80725;SDS011;70113;59.928;10.878;2023-09-19T15:56:09;2.95;;;0.52;;
80725;SDS011;70113;59.928;10.878;2023-09-19T15:58:37;3.05;;;0.60;;
80725;SDS011;70113;59.928;10.878;2023-09-19T16:01:04;1.92;;;0.35;;
80725;SDS011;70113;59.928;10.878;2023-09-19T16:03:35;1.45;;;0.50;;
80725;SDS011;70113;59.928;10.878;2023-09-19T16:06:08;1.83;;;0.60;;
80725;SDS011;70113;59.928;10.878;2023-09-19T16:08:38;1.90;;;0.50;;
80725;SDS011;70113;59.928;10.878;2023-09-19T16:11:04;1.60;;;0.45;;
80725;SDS011;70113;59.928;10.878;2023-09-19T16:13:30;2.38;;;0.63;;
80725;SDS011;70113;59.928;10.878;2023-09-19T16:15:56;1.50;;;0.40;;
80725;SDS011;70113;59.928;10.878;2023-09-19T16:18:21;3.70;;;0.70;;
80725;SDS011;70113;59.928;10.878;2023-09-19T16:20:47;2.00;;;0.57;;
80725;SDS011;70113;59.928;10.878;2023-09-19T16:23:13;2.75;;;0.50;;